Hamamatsu, Japan

5:12 PM JST on February 01, 2015 (GMT +0900)
Lake Hamana | Change Station
CLOSE
Current Station
Personal Weather Station
Location: Kosai, SHIZUOKA
Elevation: 26 ft
Nearby Weather Stations

Elev 26 ft 34.72 °N, 137.53 °E | Updated 2 minutes ago

Mostly Cloudy
Mostly Cloudy
45.3 °F
Feels Like 43 °F
N
4.5
Wind Variable Wind from NNE
Gusts 12.1 mph

Today
High -- | Low -- °F
--% Chance of Precip.
Yesterday
High -- | Low -- °F
Precip. -- in
6:48 AM 5:17 PM
Waxing Gibbous, 94% visible
Pressure 30.24 in
Visibility 6.2 miles
Clouds Few 2500 ft
Mostly Cloudy 4000 ft
Windchill 43 °F
Dew Point 10 °F
Humidity 23%
Rainfall 0.00 in
Snow Depth Not available.
UV 0 out of 12
Pollen Not available.
Air Quality Not available.
Flu Activity Not available.
METAR RJGG 010800Z 34021KT 9999 FEW025 BKN040 05/M02 Q1024 NOSIG

More Conditions Fewer Conditions

Pressure 30.24 in
Visibility 6.2 miles
Clouds Few 2500 ft
Mostly Cloudy 4000 ft
Windchill 43 °F
Dew Point 10 °F
Humidity 23%
Rainfall 0.00 in
Snow Depth Not available.
UV 0 out of 12
Pollen Not available.
Air Quality Not available.
Flu Activity Not available.
METAR RJGG 010800Z 34021KT 9999 FEW025 BKN040 05/M02 Q1024 NOSIG

More Conditions Fewer Conditions

10-Day Weather Forecast

Almanac

Astronomy

Feb. 01, 2015 Rise Set
Actual Time
Civil Twilight
Nautical Twilight
Astronomical Twilight
Moon
Length of Visible Light
Length of Day
Tomorrow will be .
, % of the Moon is Illuminated

Today's Extremes

Country Highs Country Lows

Community

WunderPhotos

Upload Photos

1,792,327 photos uploaded!

WunderBlogs® & News

Nearby

Air Quality

  Air Quality AQ Index Pollutant
Not available.

Snow Depth

Station Depth Elevation

Earthquake Activity

City Distance Mag. Time & Date
Minimum magnitude displayed is 2.5.

Coastal Water Temperatures

Place Temperature

Nearby Weather Stations